Havana, Cuba

12:40 AM CDT on October 01, 2014 (GMT -0400)
Jose Marti International | Change Station
CLOSE
Current Station
Airport
Location: Havana,
Elevation: 246 ft
Nearby Weather Stations

Elev 246 ft 22.99 °N, 82.41 °W | Updated 45 minutes ago

Clear
Clear
75 °F
Feels Like 75 °F
N
2
Wind Variable Wind from ESE

Today
High -- | Low -- °F
--% Chance of Precip.
Yesterday
High -- | Low -- °F
Precip. -- in
7:21 AM 7:16 PM
Waxing Crescent, 43% visible
Pressure 29.95 in
Visibility 5.6 miles
Clouds
Dew Point 72 °F
Humidity 89%
Rainfall 0.00 in
Snow Depth Not available.
UV Not available.
Pollen Not available.
Air Quality Not available.
Flu Activity Not available.
METAR MUHA 010355Z 12002KT 9000 NSC 24/22 Q1014

More Conditions Fewer Conditions

Pressure 29.95 in
Visibility 5.6 miles
Clouds
Dew Point 72 °F
Humidity 89%
Rainfall 0.00 in
Snow Depth Not available.
UV Not available.
Pollen Not available.
Air Quality Not available.
Flu Activity Not available.
METAR MUHA 010355Z 12002KT 9000 NSC 24/22 Q1014

More Conditions Fewer Conditions

10-Day Weather Forecast

Almanac

Astronomy

Oct. 01, 2014 Rise Set
Actual Time 7:21 AM CDT 7:16 PM CDT
Civil Twilight 6:58 AM CDT 7:39 PM CDT
Nautical Twilight 6:32 AM CDT 8:05 PM CDT
Astronomical Twilight 6:06 AM CDT 8:31 PM CDT
Moon 1:52 PM CDT 12:16 AM CDT
Length of Visible Light 12h 40m
Length of Day
11h 55m
Tomorrow will be 1m 19s shorter.
Waxing Crescent, 43% of the Moon is Illuminated
Today
Waxing Crescent
Oct 1
First Quarter
Oct 8
Full
Oct 15
Last Quarter
Oct 23
New

Yesterday's Extremes

Country Highs Country Lows

Community

WunderPhotos

Upload Photos

1,757,847 photos uploaded!

Nearby

Snow Depth

Not available.

Earthquake Activity

City Distance Mag. Time & Date
No recent earthquake activity has been reported nearby.
Minimum magnitude displayed is 2.5.

Coastal Water Temperatures

Place Temperature
No Stations Reporting

Nearby Weather Stations